createdAt,value
2022-08-08T00:00:54.072Z,11.80
2022-08-08T00:02:04.130Z,11.80
2022-08-08T00:03:31.483Z,11.80
2022-08-08T00:05:13.448Z,11.80
2022-08-08T00:06:59.041Z,11.90
2022-08-08T00:08:49.769Z,11.90
2022-08-08T00:10:28.405Z,11.90
2022-08-08T00:12:10.376Z,11.90
2022-08-08T00:14:15.128Z,11.90
2022-08-08T00:15:56.658Z,11.80
2022-08-08T00:18:01.720Z,11.80
2022-08-08T00:19:46.538Z,11.80
2022-08-08T00:21:26.301Z,11.80
2022-08-08T00:23:07.942Z,11.80
2022-08-08T00:24:47.179Z,11.80
2022-08-08T00:26:29.711Z,11.90
2022-08-08T00:28:06.742Z,12.00
2022-08-08T00:30:04.340Z,11.90
2022-08-08T00:32:28.363Z,11.90
2022-08-08T00:34:17.150Z,12.00
2022-08-08T00:35:51.347Z,12.00
2022-08-08T00:37:47.537Z,12.10
2022-08-08T00:39:36.245Z,12.10
2022-08-08T00:42:07.999Z,12.10
2022-08-08T00:44:02.483Z,12.00
2022-08-08T00:45:57.631Z,12.10
2022-08-08T00:48:30.154Z,12.10
2022-08-08T00:50:59.166Z,12.20
2022-08-08T00:52:48.563Z,12.10
2022-08-08T00:55:11.769Z,12.00
2022-08-08T00:57:45.375Z,11.90
2022-08-08T01:00:08.535Z,11.90
2022-08-08T01:02:01.985Z,12.00
2022-08-08T01:04:29.467Z,12.10
2022-08-08T01:06:44.344Z,12.20
2022-08-08T01:09:36.471Z,12.30
2022-08-08T01:11:55.963Z,12.30
2022-08-08T01:13:58.980Z,12.10
2022-08-08T01:16:27.841Z,12.00
2022-08-08T01:18:53.708Z,12.00
2022-08-08T01:20:53.872Z,11.90
2022-08-08T01:23:03.047Z,11.80
2022-08-08T01:25:14.453Z,11.80
2022-08-08T01:27:21.343Z,11.60
2022-08-08T01:29:24.213Z,11.50
2022-08-08T01:32:13.806Z,11.30
2022-08-08T01:34:04.976Z,11.40
2022-08-08T01:36:13.980Z,11.50
2022-08-08T01:38:11.284Z,11.50
2022-08-08T01:40:15.784Z,11.60
2022-08-08T01:41:58.087Z,11.60
2022-08-08T01:43:53.390Z,11.60
2022-08-08T01:45:56.175Z,11.60
2022-08-08T01:48:14.692Z,11.60
2022-08-08T01:50:06.016Z,11.60
2022-08-08T01:53:01.966Z,11.60
2022-08-08T01:55:26.623Z,11.50
2022-08-08T01:56:28.838Z,11.30
2022-08-08T01:58:16.957Z,11.30
2022-08-08T02:00:08.365Z,11.30
2022-08-08T02:02:09.759Z,11.30
2022-08-08T02:04:08.761Z,11.30
2022-08-08T02:05:59.219Z,11.30
2022-08-08T02:07:57.533Z,11.20
2022-08-08T02:10:03.325Z,11.10
2022-08-08T02:11:58.719Z,11.10
2022-08-08T02:13:52.585Z,11.10
2022-08-08T02:15:38.309Z,11.10
2022-08-08T02:17:20.582Z,11.10
2022-08-08T02:19:41.695Z,11.00
2022-08-08T02:21:35.621Z,11.00
2022-08-08T02:23:22.765Z,11.00
2022-08-08T02:25:11.717Z,10.90
2022-08-08T02:26:52.930Z,10.90
2022-08-08T02:29:00.392Z,10.90
2022-08-08T02:30:49.783Z,10.90
2022-08-08T02:32:38.429Z,10.80
2022-08-08T02:34:33.203Z,10.70
2022-08-08T02:36:32.740Z,10.70
2022-08-08T02:38:35.337Z,10.60
2022-08-08T02:40:20.404Z,10.60
2022-08-08T02:42:41.618Z,10.60
2022-08-08T02:44:57.758Z,10.60
2022-08-08T02:46:57.703Z,10.50
2022-08-08T02:48:57.076Z,10.40
2022-08-08T02:51:30.392Z,10.30
2022-08-08T02:53:43.706Z,10.20
2022-08-08T02:56:09.367Z,10.20
2022-08-08T02:58:26.763Z,10.20
2022-08-08T03:00:29.747Z,10.10
2022-08-08T03:02:50.580Z,10.10
2022-08-08T03:05:13.371Z,10.10
2022-08-08T03:07:24.248Z,10.10
2022-08-08T03:09:35.371Z,10.20
2022-08-08T03:11:48.093Z,10.20
2022-08-08T03:16:00.542Z,10.10
2022-08-08T03:16:38.368Z,10.10
2022-08-08T03:18:31.138Z,10.10
2022-08-08T03:20:07.823Z,10.00
2022-08-08T03:21:58.645Z,10.00
2022-08-08T03:23:39.920Z,9.90
2022-08-08T03:25:36.069Z,9.90
2022-08-08T03:27:29.913Z,9.90
2022-08-08T03:29:15.023Z,9.90
2022-08-08T03:31:22.074Z,9.90
2022-08-08T03:33:07.888Z,9.90
2022-08-08T03:35:06.054Z,9.90
2022-08-08T03:36:43.148Z,9.80
2022-08-08T03:38:56.873Z,9.80
2022-08-08T03:40:28.848Z,9.80
2022-08-08T03:42:27.761Z,9.80
2022-08-08T03:43:59.560Z,9.80
2022-08-08T03:46:07.395Z,9.80
2022-08-08T03:47:45.148Z,9.70
2022-08-08T03:49:57.609Z,9.70
2022-08-08T03:51:35.402Z,9.70
2022-08-08T03:53:15.198Z,9.70
2022-08-08T03:55:09.544Z,9.70
2022-08-08T03:56:46.952Z,9.70
2022-08-08T03:58:34.217Z,9.80
2022-08-08T04:00:21.129Z,9.80
2022-08-08T04:02:15.835Z,9.80
2022-08-08T04:03:58.275Z,9.80
2022-08-08T04:05:39.809Z,9.90
2022-08-08T04:07:21.437Z,9.90
2022-08-08T04:08:55.002Z,10.00
2022-08-08T04:10:32.623Z,10.10
2022-08-08T04:12:11.767Z,10.10
2022-08-08T04:14:03.190Z,10.10
2022-08-08T04:15:54.967Z,10.20
2022-08-08T04:17:58.162Z,10.30
2022-08-08T04:19:36.887Z,10.40
2022-08-08T04:21:10.463Z,10.50
2022-08-08T04:22:45.054Z,10.60
2022-08-08T04:24:29.689Z,10.80
2022-08-08T04:26:09.155Z,10.90
2022-08-08T04:28:03.678Z,11.00
2022-08-08T04:29:38.778Z,11.20
2022-08-08T04:31:56.837Z,11.30
2022-08-08T04:33:11.205Z,11.40
2022-08-08T04:34:55.437Z,11.60
2022-08-08T04:36:33.565Z,11.70
2022-08-08T04:38:06.936Z,11.80
2022-08-08T04:40:05.462Z,11.90
2022-08-08T04:41:42.746Z,12.00
2022-08-08T04:43:17.354Z,12.10
2022-08-08T04:44:57.800Z,12.20
2022-08-08T04:46:33.226Z,12.20
2022-08-08T04:48:07.359Z,12.30
2022-08-08T04:50:00.328Z,12.40
2022-08-08T04:51:55.085Z,12.50
2022-08-08T04:54:36.254Z,12.60
2022-08-08T04:55:22.011Z,12.60
2022-08-08T04:56:56.310Z,12.80
2022-08-08T04:58:33.110Z,12.90
2022-08-08T05:00:08.321Z,13.00
2022-08-08T05:01:48.234Z,13.10
2022-08-08T05:04:10.627Z,13.20
2022-08-08T05:05:20.480Z,13.30
2022-08-08T05:07:11.158Z,13.60
2022-08-08T05:08:51.756Z,13.70
2022-08-08T05:10:29.795Z,13.80
2022-08-08T05:12:05.765Z,13.90
2022-08-08T05:13:58.272Z,14.00
2022-08-08T05:16:51.537Z,14.10
2022-08-08T05:17:29.488Z,14.20
2022-08-08T05:20:10.795Z,14.30
2022-08-08T05:21:19.215Z,14.30
2022-08-08T05:22:54.111Z,14.50
2022-08-08T05:24:33.467Z,14.50
2022-08-08T05:26:07.250Z,14.50
2022-08-08T05:27:41.315Z,14.60
2022-08-08T05:29:19.798Z,14.70
2022-08-08T05:30:54.471Z,14.80
2022-08-08T05:32:36.821Z,14.90
2022-08-08T05:34:20.867Z,15.10
2022-08-08T05:36:03.196Z,15.30
2022-08-08T05:37:53.202Z,15.50
2022-08-08T05:39:53.360Z,15.60
2022-08-08T05:41:28.924Z,15.70
2022-08-08T05:43:40.176Z,15.90
2022-08-08T05:45:25.448Z,16.00
2022-08-08T05:47:07.370Z,16.40
2022-08-08T05:48:41.948Z,16.70
2022-08-08T05:50:19.933Z,17.00
2022-08-08T05:51:54.033Z,18.40
2022-08-08T05:54:26.050Z,20.30
2022-08-08T05:55:25.641Z,21.70
2022-08-08T05:56:59.184Z,24.10
2022-08-08T05:58:56.779Z,25.30
2022-08-08T06:00:34.580Z,26.40
2022-08-08T06:02:40.929Z,26.60
2022-08-08T06:04:24.372Z,27.50
2022-08-08T06:06:06.470Z,27.30
2022-08-08T06:07:43.993Z,27.90
2022-08-08T06:09:59.350Z,27.60
2022-08-08T06:11:19.365Z,28.40
2022-08-08T06:12:53.247Z,29.00
2022-08-08T06:14:28.657Z,29.20
2022-08-08T06:16:03.567Z,28.70
2022-08-08T06:18:21.175Z,29.10
2022-08-08T06:19:56.739Z,29.40
2022-08-08T06:21:32.671Z,29.30
2022-08-08T06:23:39.719Z,30.40
2022-08-08T06:25:18.604Z,29.50
2022-08-08T06:27:12.487Z,29.00
2022-08-08T06:28:54.177Z,29.70
2022-08-08T06:30:29.152Z,29.50
2022-08-08T06:32:14.955Z,29.70
2022-08-08T06:34:25.742Z,30.60
2022-08-08T06:36:07.176Z,30.50
2022-08-08T06:37:50.851Z,29.90
2022-08-08T06:39:32.580Z,27.90
2022-08-08T06:41:13.172Z,27.40
2022-08-08T06:42:55.295Z,26.90
2022-08-08T06:44:32.773Z,27.10
2022-08-08T06:46:08.666Z,27.40
2022-08-08T06:47:52.454Z,26.50
2022-08-08T06:49:55.442Z,24.90
2022-08-08T06:51:31.434Z,23.50
2022-08-08T06:53:39.963Z,24.60
2022-08-08T06:55:18.239Z,25.60
2022-08-08T06:56:52.841Z,27.00
2022-08-08T06:58:30.818Z,27.60
2022-08-08T07:00:11.241Z,26.40
2022-08-08T07:02:27.404Z,26.90
2022-08-08T07:04:37.929Z,26.80
2022-08-08T07:06:02.378Z,25.90
2022-08-08T07:07:50.965Z,26.00
2022-08-08T07:09:45.401Z,28.10
2022-08-08T07:11:30.235Z,27.80
2022-08-08T07:13:22.951Z,27.70
2022-08-08T07:15:04.495Z,27.80
2022-08-08T07:16:54.037Z,29.60
2022-08-08T07:18:40.953Z,29.40
2022-08-08T07:20:21.097Z,29.60
2022-08-08T07:22:11.942Z,30.30
2022-08-08T07:24:03.841Z,29.80
2022-08-08T07:25:55.531Z,30.40
2022-08-08T07:28:00.745Z,31.20
2022-08-08T07:29:59.642Z,32.30
2022-08-08T07:31:25.025Z,32.60
2022-08-08T07:33:01.266Z,32.80
2022-08-08T07:34:48.404Z,32.80
2022-08-08T07:36:33.893Z,33.30
2022-08-08T07:38:10.301Z,28.60
2022-08-08T07:39:59.788Z,27.10
2022-08-08T07:41:58.893Z,27.60
2022-08-08T07:43:37.414Z,27.70
2022-08-08T07:45:13.283Z,30.40
2022-08-08T07:46:50.816Z,29.30
2022-08-08T07:48:30.069Z,30.70
2022-08-08T07:50:04.792Z,31.90
2022-08-08T07:51:45.567Z,31.40
2022-08-08T07:54:00.896Z,29.30
2022-08-08T07:55:30.429Z,30.30
2022-08-08T07:57:24.500Z,30.90
2022-08-08T07:59:01.403Z,30.90
2022-08-08T08:00:40.312Z,32.60
2022-08-08T08:02:34.952Z,33.30
2022-08-08T08:04:16.268Z,32.90
2022-08-08T08:05:53.141Z,34.00
2022-08-08T08:07:38.651Z,35.20
2022-08-08T08:09:32.984Z,36.00
2022-08-08T08:11:18.471Z,34.50
2022-08-08T08:12:56.329Z,34.00
2022-08-08T08:14:34.205Z,34.10
2022-08-08T08:16:09.484Z,34.40
2022-08-08T08:17:56.053Z,32.60
2022-08-08T08:19:45.440Z,31.10
2022-08-08T08:21:43.962Z,30.60
2022-08-08T08:23:20.305Z,30.70
2022-08-08T08:25:08.101Z,30.50
2022-08-08T08:26:46.889Z,31.00
2022-08-08T08:28:24.220Z,30.40
2022-08-08T08:30:01.993Z,29.90
2022-08-08T08:31:41.750Z,30.10
2022-08-08T08:33:16.442Z,30.10
2022-08-08T08:34:52.224Z,30.00
2022-08-08T08:36:26.673Z,30.40
2022-08-08T08:38:18.661Z,28.90
2022-08-08T08:40:03.039Z,27.90
2022-08-08T08:41:43.281Z,28.90
2022-08-08T08:43:26.949Z,30.00
2022-08-08T08:45:21.736Z,30.80
2022-08-08T08:47:06.598Z,31.20
2022-08-08T08:48:49.654Z,31.30
2022-08-08T08:50:34.029Z,31.40
2022-08-08T08:52:15.142Z,31.40
2022-08-08T08:53:55.968Z,31.00
2022-08-08T08:55:40.805Z,31.20
2022-08-08T08:57:17.555Z,31.90
2022-08-08T08:58:54.220Z,32.30
2022-08-08T09:01:02.860Z,32.50
2022-08-08T09:02:28.717Z,32.50
2022-08-08T09:04:29.994Z,32.10
2022-08-08T09:06:04.036Z,31.50
2022-08-08T09:08:12.730Z,31.70
2022-08-08T09:09:58.218Z,31.60
2022-08-08T09:12:01.350Z,31.50
2022-08-08T09:13:40.477Z,32.20
2022-08-08T09:15:14.857Z,32.10
2022-08-08T09:16:57.317Z,31.70
2022-08-08T09:18:32.046Z,31.90
2022-08-08T09:21:56.521Z,31.50
2022-08-08T09:22:06.435Z,29.90
2022-08-08T09:23:41.006Z,30.70
2022-08-08T09:25:16.607Z,31.50
2022-08-08T09:26:59.803Z,31.80
2022-08-08T09:28:41.629Z,32.70
2022-08-08T09:30:22.157Z,32.20
2022-08-08T09:32:06.211Z,31.20
2022-08-08T09:34:14.686Z,32.30
2022-08-08T09:35:50.927Z,33.10
2022-08-08T09:37:59.366Z,30.60
2022-08-08T09:39:40.534Z,29.00
2022-08-08T09:41:19.389Z,29.70
2022-08-08T09:43:16.644Z,30.70
2022-08-08T09:45:08.128Z,30.80
2022-08-08T09:46:57.749Z,31.70
2022-08-08T09:48:43.070Z,31.80
2022-08-08T09:50:28.343Z,32.10
2022-08-08T09:52:07.200Z,31.20
2022-08-08T09:53:59.724Z,30.20
2022-08-08T09:56:03.307Z,29.70
2022-08-08T09:57:45.740Z,29.50
2022-08-08T10:00:01.728Z,30.70
2022-08-08T10:02:03.163Z,31.30
2022-08-08T10:03:19.895Z,31.80
2022-08-08T10:04:54.270Z,31.10
2022-08-08T10:06:29.755Z,31.70
2022-08-08T10:08:09.800Z,32.30
2022-08-08T10:10:00.486Z,32.60
2022-08-08T10:12:26.858Z,32.50
2022-08-08T10:13:35.321Z,32.50
2022-08-08T10:15:17.518Z,32.10
2022-08-08T10:16:56.865Z,32.00
2022-08-08T10:18:33.424Z,32.50
2022-08-08T10:20:08.097Z,31.90
2022-08-08T10:21:51.076Z,32.80
2022-08-08T10:23:41.908Z,33.50
2022-08-08T10:25:22.188Z,34.10
2022-08-08T10:27:00.766Z,34.70
2022-08-08T10:28:34.332Z,33.90
2022-08-08T10:30:16.518Z,33.00
2022-08-08T10:32:22.380Z,31.90
2022-08-08T10:34:20.069Z,29.20
2022-08-08T10:36:20.291Z,29.10
2022-08-08T10:37:56.949Z,27.70
2022-08-08T10:39:53.378Z,28.20
2022-08-08T10:41:35.774Z,28.50
2022-08-08T10:43:20.292Z,29.50
2022-08-08T10:45:02.237Z,30.90
2022-08-08T10:46:36.756Z,31.30
2022-08-08T10:48:12.687Z,31.80
2022-08-08T10:50:01.284Z,32.60
2022-08-08T10:51:47.299Z,32.40
2022-08-08T10:53:56.232Z,31.30
2022-08-08T10:55:41.643Z,30.50
2022-08-08T10:57:27.621Z,31.60
2022-08-08T10:59:14.794Z,31.80
2022-08-08T11:00:53.382Z,33.00
2022-08-08T11:02:36.693Z,33.00
2022-08-08T11:04:11.749Z,32.00
2022-08-08T11:05:51.885Z,32.50
2022-08-08T11:08:31.117Z,32.30
2022-08-08T11:09:32.276Z,32.50
2022-08-08T11:11:08.216Z,31.80
2022-08-08T11:14:57.009Z,31.60
2022-08-08T11:16:34.588Z,32.00
2022-08-08T11:18:09.320Z,32.30
2022-08-08T11:19:46.627Z,32.90
2022-08-08T11:21:34.928Z,33.10
2022-08-08T11:23:10.949Z,32.30
2022-08-08T11:24:46.929Z,31.80
2022-08-08T11:26:23.509Z,31.00
2022-08-08T11:28:04.110Z,31.50
2022-08-08T11:29:51.211Z,31.70
2022-08-08T11:31:39.605Z,31.40
2022-08-08T11:33:51.011Z,32.70
2022-08-08T11:35:29.413Z,33.20
2022-08-08T11:37:15.238Z,32.70
2022-08-08T11:38:54.595Z,31.60
2022-08-08T11:40:31.495Z,32.40
2022-08-08T11:42:09.268Z,31.10
2022-08-08T11:43:43.558Z,30.00
2022-08-08T11:45:18.377Z,30.60
2022-08-08T11:46:57.770Z,31.40
2022-08-08T11:48:33.488Z,30.70
2022-08-08T11:50:10.296Z,30.50
2022-08-08T11:51:50.433Z,30.40
2022-08-08T11:53:26.244Z,29.20
2022-08-08T11:54:59.581Z,30.10
2022-08-08T11:56:34.528Z,30.00
2022-08-08T11:58:15.019Z,30.60
2022-08-08T12:00:00.422Z,29.80
2022-08-08T12:01:45.313Z,30.70
2022-08-08T12:03:25.154Z,31.50
2022-08-08T12:05:08.197Z,32.40
2022-08-08T12:06:48.728Z,32.40
2022-08-08T12:08:33.039Z,32.70
2022-08-08T12:10:15.096Z,33.00
2022-08-08T12:11:51.008Z,33.20
2022-08-08T12:13:38.205Z,32.70
2022-08-08T12:15:29.435Z,31.50
2022-08-08T12:17:02.533Z,30.40
2022-08-08T12:18:46.482Z,30.00
2022-08-08T12:20:21.142Z,29.60
2022-08-08T12:22:09.445Z,29.20
2022-08-08T12:24:00.210Z,29.90
2022-08-08T12:25:34.993Z,29.60
2022-08-08T12:27:19.727Z,30.00
2022-08-08T12:28:57.286Z,31.00
2022-08-08T12:30:33.948Z,31.60
2022-08-08T12:32:13.551Z,31.30
2022-08-08T12:34:02.328Z,31.60
2022-08-08T12:35:41.574Z,31.70
2022-08-08T12:37:41.048Z,32.00
2022-08-08T12:40:00.516Z,31.50
2022-08-08T12:41:35.195Z,30.10
2022-08-08T12:43:20.408Z,30.20
2022-08-08T12:45:53.824Z,30.60
2022-08-08T12:47:00.271Z,31.50
2022-08-08T12:48:38.860Z,32.30
2022-08-08T12:50:12.368Z,32.80
2022-08-08T12:51:59.019Z,32.80
2022-08-08T12:53:41.684Z,32.50
2022-08-08T12:55:29.409Z,32.80
2022-08-08T12:57:17.260Z,33.20
2022-08-08T12:58:54.489Z,32.10
2022-08-08T13:00:33.891Z,33.30
2022-08-08T13:02:27.164Z,31.40
2022-08-08T13:04:01.868Z,32.40
2022-08-08T13:06:05.430Z,32.50
2022-08-08T13:08:02.955Z,33.40
2022-08-08T13:10:00.470Z,33.50
2022-08-08T13:12:27.112Z,31.80
2022-08-08T13:13:34.828Z,31.50
2022-08-08T13:15:10.696Z,32.70
2022-08-08T13:16:44.273Z,32.10
2022-08-08T13:18:27.318Z,31.00
2022-08-08T13:20:06.234Z,31.50
2022-08-08T13:21:53.549Z,31.80
2022-08-08T13:23:41.798Z,31.30
2022-08-08T13:25:22.511Z,30.50
2022-08-08T13:27:03.797Z,30.70
2022-08-08T13:28:37.764Z,30.50
2022-08-08T13:30:20.855Z,30.90
2022-08-08T13:32:04.663Z,30.40
2022-08-08T13:33:42.525Z,31.00
2022-08-08T13:35:24.783Z,30.60
2022-08-08T13:37:03.066Z,31.20
2022-08-08T13:38:46.313Z,31.90
2022-08-08T13:40:27.254Z,32.50
2022-08-08T13:42:01.641Z,31.20
2022-08-08T13:43:35.014Z,30.90
2022-08-08T13:45:12.430Z,31.00
2022-08-08T13:46:56.020Z,31.90
2022-08-08T13:48:29.190Z,32.10
2022-08-08T13:50:37.543Z,32.50
2022-08-08T13:52:03.622Z,32.80
2022-08-08T13:53:40.606Z,33.20
2022-08-08T13:55:36.569Z,32.70
2022-08-08T13:57:14.462Z,32.60
2022-08-08T13:58:56.002Z,32.20
2022-08-08T14:00:29.815Z,32.10
2022-08-08T14:02:12.484Z,31.80
2022-08-08T14:03:56.365Z,31.50
2022-08-08T14:05:34.116Z,31.10
2022-08-08T14:07:09.789Z,31.40
2022-08-08T14:08:46.401Z,31.20
2022-08-08T14:10:36.716Z,30.10
2022-08-08T14:12:12.190Z,30.10
2022-08-08T14:13:59.676Z,29.90
2022-08-08T14:15:46.044Z,30.20
2022-08-08T14:17:57.863Z,29.60
2022-08-08T14:19:29.433Z,29.30
2022-08-08T14:21:15.038Z,29.40
2022-08-08T14:22:53.798Z,30.00
2022-08-08T14:24:33.811Z,29.30
2022-08-08T14:26:10.849Z,29.40
2022-08-08T14:28:00.086Z,29.60
2022-08-08T14:29:39.621Z,29.80
2022-08-08T14:31:20.469Z,29.70
2022-08-08T14:32:58.693Z,29.80
2022-08-08T14:34:31.861Z,30.00
2022-08-08T14:36:09.572Z,30.10
2022-08-08T14:37:59.638Z,30.00
2022-08-08T14:39:48.155Z,30.00
2022-08-08T14:41:53.186Z,29.80
2022-08-08T14:44:02.134Z,29.60
2022-08-08T14:45:18.454Z,29.20
2022-08-08T14:47:02.656Z,28.90
2022-08-08T14:48:57.356Z,29.00
2022-08-08T14:50:39.101Z,29.00
2022-08-08T14:52:13.091Z,28.90
2022-08-08T14:53:56.293Z,28.60
2022-08-08T14:55:41.042Z,28.50
2022-08-08T14:57:16.331Z,28.40
2022-08-08T14:58:51.114Z,28.10
2022-08-08T15:00:25.495Z,28.10
2022-08-08T15:01:58.780Z,28.20
2022-08-08T15:03:35.303Z,28.20
2022-08-08T15:05:12.831Z,28.00
2022-08-08T15:06:46.019Z,27.90
2022-08-08T15:08:34.433Z,27.70
2022-08-08T15:10:11.559Z,27.40
2022-08-08T15:11:53.222Z,27.30
2022-08-08T15:13:26.854Z,27.40
2022-08-08T15:15:18.781Z,27.40
2022-08-08T15:17:09.152Z,27.60
2022-08-08T15:18:51.590Z,27.60
2022-08-08T15:20:25.295Z,27.50
2022-08-08T15:21:59.059Z,27.50
2022-08-08T15:23:34.640Z,27.50
2022-08-08T15:25:17.770Z,27.50
2022-08-08T15:27:04.063Z,27.40
2022-08-08T15:28:54.073Z,27.40
2022-08-08T15:30:29.038Z,27.00
2022-08-08T15:32:20.840Z,26.80
2022-08-08T15:33:59.479Z,26.60
2022-08-08T15:35:37.419Z,26.60
2022-08-08T15:37:13.111Z,26.60
2022-08-08T15:38:50.297Z,26.70
2022-08-08T15:40:28.267Z,26.70
2022-08-08T15:42:02.178Z,26.80
2022-08-08T15:43:37.908Z,26.80
2022-08-08T15:45:11.318Z,26.80
2022-08-08T15:46:45.472Z,26.80
2022-08-08T15:48:23.914Z,26.60
2022-08-08T15:49:57.055Z,26.40
2022-08-08T15:51:32.699Z,26.40
2022-08-08T15:53:06.870Z,26.30
2022-08-08T15:54:41.390Z,26.40
2022-08-08T15:56:14.536Z,26.50
2022-08-08T15:57:50.859Z,26.50
2022-08-08T16:00:06.595Z,26.60
2022-08-08T16:01:17.501Z,26.70
2022-08-08T16:02:53.223Z,26.80
2022-08-08T16:04:29.781Z,26.80
2022-08-08T16:06:03.071Z,26.80
2022-08-08T16:07:50.988Z,26.90
2022-08-08T16:13:08.671Z,26.70
2022-08-08T16:13:27.451Z,26.80
2022-08-08T16:13:34.165Z,26.70
2022-08-08T16:15:09.513Z,26.60
2022-08-08T16:16:45.702Z,26.60
2022-08-08T16:18:25.255Z,26.60
2022-08-08T16:20:00.526Z,26.60
2022-08-08T16:21:35.136Z,26.40
2022-08-08T16:23:11.810Z,26.40
2022-08-08T16:24:44.934Z,26.30
2022-08-08T16:26:19.347Z,26.30
2022-08-08T16:27:57.157Z,26.30
2022-08-08T16:29:37.763Z,26.30
2022-08-08T16:31:25.087Z,26.20
2022-08-08T16:32:59.931Z,26.10
2022-08-08T16:34:36.286Z,26.20
2022-08-08T16:36:15.789Z,26.20
2022-08-08T16:37:52.705Z,26.10
2022-08-08T16:40:00.271Z,26.00
2022-08-08T16:41:22.896Z,26.00
2022-08-08T16:42:57.494Z,26.00
2022-08-08T16:44:34.318Z,26.00
2022-08-08T16:46:44.742Z,26.00
2022-08-08T16:48:01.177Z,26.00
2022-08-08T16:49:38.364Z,26.00
2022-08-08T16:51:13.340Z,25.90
2022-08-08T16:55:06.263Z,25.90
2022-08-08T16:55:34.087Z,25.80
2022-08-08T16:57:03.989Z,25.80
2022-08-08T16:58:47.168Z,25.80
2022-08-08T17:00:26.687Z,25.80
2022-08-08T17:02:00.461Z,25.70
2022-08-08T17:03:59.463Z,25.70
2022-08-08T17:05:31.273Z,25.70
2022-08-08T17:07:20.278Z,25.70
2022-08-08T17:08:53.398Z,25.70
2022-08-08T17:10:26.792Z,25.70
2022-08-08T17:12:02.540Z,25.70
2022-08-08T17:13:41.117Z,25.70
2022-08-08T17:15:34.696Z,25.70
2022-08-08T17:17:41.390Z,25.70
2022-08-08T17:19:14.069Z,25.70
2022-08-08T17:20:50.832Z,25.60
2022-08-08T17:22:39.093Z,25.50
2022-08-08T17:24:27.029Z,25.50
2022-08-08T17:26:05.340Z,25.40
2022-08-08T17:27:46.337Z,25.40
2022-08-08T17:29:25.226Z,25.30
2022-08-08T17:30:58.541Z,25.20
2022-08-08T17:32:44.502Z,25.10
2022-08-08T17:34:48.987Z,25.00
2022-08-08T17:36:28.681Z,25.00
2022-08-08T17:38:05.354Z,24.90
2022-08-08T17:40:04.977Z,24.80
2022-08-08T17:41:38.860Z,24.80
2022-08-08T17:43:16.333Z,24.70
2022-08-08T17:44:51.059Z,24.70
2022-08-08T17:46:40.707Z,24.60
2022-08-08T17:48:21.111Z,24.60
2022-08-08T17:50:06.066Z,24.60
2022-08-08T17:51:40.019Z,24.50
2022-08-08T17:53:18.204Z,24.50
2022-08-08T17:56:06.023Z,24.40
2022-08-08T17:57:06.287Z,24.40
2022-08-08T17:58:40.069Z,24.30
2022-08-08T18:00:19.524Z,24.20
2022-08-08T18:01:56.980Z,24.20
2022-08-08T18:03:30.167Z,24.10
2022-08-08T18:05:08.491Z,24.10
2022-08-08T18:06:47.969Z,24.00
2022-08-08T18:08:40.823Z,24.00
2022-08-08T18:10:15.476Z,23.90
2022-08-08T18:11:51.051Z,23.80
2022-08-08T18:13:24.391Z,23.80
2022-08-08T18:15:00.303Z,23.70
2022-08-08T18:16:33.836Z,23.70
2022-08-08T18:18:27.677Z,23.60
2022-08-08T18:20:42.758Z,23.40
2022-08-08T18:22:02.432Z,23.30
2022-08-08T18:23:39.670Z,23.10
2022-08-08T18:25:13.221Z,22.90
2022-08-08T18:26:54.485Z,22.80
2022-08-08T18:28:29.236Z,22.60
2022-08-08T18:30:09.564Z,22.50
2022-08-08T18:31:44.246Z,22.40
2022-08-08T18:34:10.301Z,22.30
2022-08-08T18:35:15.687Z,22.20
2022-08-08T18:36:48.941Z,22.10
2022-08-08T18:38:29.688Z,22.00
2022-08-08T18:40:05.130Z,21.80
2022-08-08T18:41:51.432Z,21.70
2022-08-08T18:43:43.171Z,21.50
2022-08-08T18:46:06.238Z,21.40
2022-08-08T18:47:09.898Z,21.20
2022-08-08T18:48:43.500Z,21.00
2022-08-08T18:50:16.600Z,20.90
2022-08-08T18:51:53.930Z,20.80
2022-08-08T18:53:50.848Z,20.70
2022-08-08T18:55:23.353Z,20.50
2022-08-08T18:57:01.714Z,20.50
2022-08-08T18:58:35.172Z,20.30
2022-08-08T19:00:15.767Z,20.30
2022-08-08T19:02:28.782Z,20.20
2022-08-08T19:04:01.499Z,20.10
2022-08-08T19:05:45.616Z,20.10
2022-08-08T19:07:23.176Z,20.00
2022-08-08T19:08:56.456Z,19.90
2022-08-08T19:10:31.713Z,19.80
2022-08-08T19:12:08.832Z,19.80
2022-08-08T19:13:53.448Z,19.70
2022-08-08T19:15:33.824Z,19.70
2022-08-08T19:17:07.623Z,19.50
2022-08-08T19:18:51.462Z,19.40
2022-08-08T19:20:30.784Z,19.30
2022-08-08T19:22:05.320Z,19.20
2022-08-08T19:23:39.427Z,19.10
2022-08-08T19:26:01.283Z,19.10
2022-08-08T19:27:08.880Z,19.00
2022-08-08T19:28:44.609Z,18.90
2022-08-08T19:30:18.268Z,18.80
2022-08-08T19:31:57.858Z,18.70
2022-08-08T19:33:51.702Z,18.70
2022-08-08T19:35:25.493Z,18.60
2022-08-08T19:37:00.082Z,18.50
2022-08-08T19:38:33.252Z,18.50
2022-08-08T19:40:09.194Z,18.40
2022-08-08T19:41:48.169Z,18.30
2022-08-08T19:43:22.852Z,18.30
2022-08-08T19:45:05.183Z,18.20
2022-08-08T19:46:40.515Z,18.20
2022-08-08T19:48:29.323Z,18.30
2022-08-08T19:50:04.778Z,18.30
2022-08-08T19:51:41.599Z,18.30
2022-08-08T19:53:46.944Z,18.40
2022-08-08T19:55:14.589Z,18.50
2022-08-08T19:56:49.241Z,18.60
2022-08-08T19:58:24.200Z,18.70
2022-08-08T19:59:57.324Z,18.80
2022-08-08T20:01:50.255Z,19.00
2022-08-08T20:04:01.593Z,19.10
2022-08-08T20:05:18.477Z,19.20
2022-08-08T20:08:37.391Z,19.20
2022-08-08T20:09:09.152Z,19.00
2022-08-08T20:10:42.900Z,18.90
2022-08-08T20:12:16.003Z,18.80
2022-08-08T20:14:31.492Z,18.80
2022-08-08T20:16:01.295Z,18.70
2022-08-08T20:17:34.524Z,18.60
2022-08-08T20:19:10.486Z,18.50
2022-08-08T20:20:43.985Z,18.40
2022-08-08T20:22:26.387Z,18.30
2022-08-08T20:24:03.659Z,18.10
2022-08-08T20:25:38.618Z,18.00
2022-08-08T20:27:20.501Z,17.80
2022-08-08T20:29:08.670Z,17.70
2022-08-08T20:30:55.692Z,17.60
2022-08-08T20:32:30.085Z,17.50
2022-08-08T20:34:29.764Z,17.50
2022-08-08T20:36:06.476Z,17.30
2022-08-08T20:37:53.333Z,17.10
2022-08-08T20:39:39.720Z,17.10
2022-08-08T20:41:20.405Z,16.90
2022-08-08T20:42:55.205Z,16.80
2022-08-08T20:44:29.785Z,16.70
2022-08-08T20:46:05.142Z,16.70
2022-08-08T20:47:41.297Z,16.60
2022-08-08T20:49:15.805Z,16.70
2022-08-08T20:50:49.710Z,16.70
2022-08-08T20:52:28.566Z,16.60
2022-08-08T20:54:04.818Z,16.60
2022-08-08T20:55:51.193Z,16.60
2022-08-08T20:57:28.951Z,16.50
2022-08-08T20:59:03.284Z,16.40
2022-08-08T21:00:42.317Z,16.30
2022-08-08T21:02:25.213Z,16.20
2022-08-08T21:04:00.207Z,16.10
2022-08-08T21:05:49.189Z,16.00
2022-08-08T21:07:30.807Z,16.10
2022-08-08T21:09:16.441Z,16.10
2022-08-08T21:10:50.573Z,16.10
2022-08-08T21:12:24.811Z,16.10
2022-08-08T21:14:07.450Z,16.00
2022-08-08T21:16:05.938Z,16.00
2022-08-08T21:17:35.695Z,15.90
2022-08-08T21:19:10.925Z,15.80
2022-08-08T21:20:50.700Z,15.70
2022-08-08T21:22:24.236Z,15.60
2022-08-08T21:24:08.710Z,15.60
2022-08-08T21:25:53.290Z,15.50
2022-08-08T21:28:05.541Z,15.40
2022-08-08T21:29:22.971Z,15.40
2022-08-08T21:31:21.996Z,15.20
2022-08-08T21:32:56.482Z,15.10
2022-08-08T21:34:29.979Z,15.20
2022-08-08T21:36:20.218Z,15.10
2022-08-08T21:37:54.994Z,15.00
2022-08-08T21:39:56.786Z,15.00
2022-08-08T21:41:38.712Z,14.90
2022-08-08T21:43:15.001Z,14.80
2022-08-08T21:44:58.048Z,14.80
2022-08-08T21:48:06.282Z,14.70
2022-08-08T21:48:35.395Z,14.70
2022-08-08T21:50:17.853Z,14.70
2022-08-08T21:54:22.850Z,14.70
2022-08-08T21:54:30.824Z,14.70
2022-08-08T21:56:26.817Z,14.70
2022-08-08T21:57:42.073Z,14.60
2022-08-08T21:59:16.941Z,14.60
2022-08-08T22:00:55.080Z,14.50
2022-08-08T22:02:30.814Z,14.50
2022-08-08T22:04:04.817Z,14.40
2022-08-08T22:05:41.485Z,14.40
2022-08-08T22:07:14.973Z,14.40
2022-08-08T22:08:50.353Z,14.40
2022-08-08T22:10:28.678Z,14.50
2022-08-08T22:12:09.447Z,14.40
2022-08-08T22:13:51.153Z,14.40
2022-08-08T22:15:25.089Z,14.40
2022-08-08T22:17:01.026Z,14.40
2022-08-08T22:18:36.272Z,14.40
2022-08-08T22:20:23.841Z,14.30
2022-08-08T22:22:01.352Z,14.20
2022-08-08T22:23:34.968Z,14.20
2022-08-08T22:25:17.854Z,14.20
2022-08-08T22:27:01.755Z,14.20
2022-08-08T22:29:13.893Z,14.10
2022-08-08T22:30:30.199Z,14.10
2022-08-08T22:32:03.883Z,14.10
2022-08-08T22:34:12.032Z,14.00
2022-08-08T22:36:04.897Z,14.00
2022-08-08T22:37:49.926Z,13.90
2022-08-08T22:39:19.471Z,14.00